sensor_id;sensor_type;location;lat;lon;timestamp;P1;durP1;ratioP1;P2;durP2;ratioP2
37945;SDS011;23769;52.478;13.448;2022-12-08T00:01:39;12.35;;;5.72;;
37945;SDS011;23769;52.478;13.448;2022-12-08T00:04:06;10.20;;;5.50;;
37945;SDS011;23769;52.478;13.448;2022-12-08T00:06:34;14.60;;;5.82;;
37945;SDS011;23769;52.478;13.448;2022-12-08T00:09:22;15.70;;;6.18;;
37945;SDS011;23769;52.478;13.448;2022-12-08T00:11:54;12.07;;;6.00;;
37945;SDS011;23769;52.478;13.448;2022-12-08T00:14:22;15.85;;;6.40;;
37945;SDS011;23769;52.478;13.448;2022-12-08T00:16:49;15.45;;;6.25;;
37945;SDS011;23769;52.478;13.448;2022-12-08T00:19:16;40.58;;;22.45;;
37945;SDS011;23769;52.478;13.448;2022-12-08T00:21:44;16.88;;;6.25;;
37945;SDS011;23769;52.478;13.448;2022-12-08T00:24:11;11.63;;;5.55;;
37945;SDS011;23769;52.478;13.448;2022-12-08T00:26:39;17.05;;;6.13;;
37945;SDS011;23769;52.478;13.448;2022-12-08T00:29:07;11.85;;;5.90;;
37945;SDS011;23769;52.478;13.448;2022-12-08T00:31:34;14.77;;;5.35;;
37945;SDS011;23769;52.478;13.448;2022-12-08T00:34:02;12.38;;;6.70;;
37945;SDS011;23769;52.478;13.448;2022-12-08T00:36:29;12.82;;;6.25;;
37945;SDS011;23769;52.478;13.448;2022-12-08T00:38:56;13.43;;;5.25;;
37945;SDS011;23769;52.478;13.448;2022-12-08T00:41:24;10.07;;;5.78;;
37945;SDS011;23769;52.478;13.448;2022-12-08T00:44:07;12.70;;;5.43;;
37945;SDS011;23769;52.478;13.448;2022-12-08T00:46:34;13.68;;;5.80;;
37945;SDS011;23769;52.478;13.448;2022-12-08T00:49:02;11.57;;;5.93;;
37945;SDS011;23769;52.478;13.448;2022-12-08T00:51:29;12.45;;;6.35;;
37945;SDS011;23769;52.478;13.448;2022-12-08T00:53:56;12.63;;;6.25;;
37945;SDS011;23769;52.478;13.448;2022-12-08T00:56:23;10.50;;;6.35;;
37945;SDS011;23769;52.478;13.448;2022-12-08T00:58:51;14.50;;;6.20;;
37945;SDS011;23769;52.478;13.448;2022-12-08T01:01:20;14.57;;;6.63;;
37945;SDS011;23769;52.478;13.448;2022-12-08T01:03:47;11.38;;;6.22;;
37945;SDS011;23769;52.478;13.448;2022-12-08T01:06:14;14.13;;;6.68;;
37945;SDS011;23769;52.478;13.448;2022-12-08T01:08:41;12.80;;;6.68;;
37945;SDS011;23769;52.478;13.448;2022-12-08T01:11:09;13.07;;;6.32;;
37945;SDS011;23769;52.478;13.448;2022-12-08T01:13:36;14.23;;;6.63;;
37945;SDS011;23769;52.478;13.448;2022-12-08T01:16:03;11.77;;;7.25;;
37945;SDS011;23769;52.478;13.448;2022-12-08T01:18:32;12.77;;;6.60;;
37945;SDS011;23769;52.478;13.448;2022-12-08T01:21:02;12.40;;;6.03;;
37945;SDS011;23769;52.478;13.448;2022-12-08T01:23:29;12.15;;;5.97;;
37945;SDS011;23769;52.478;13.448;2022-12-08T01:26:00;14.75;;;6.95;;
37945;SDS011;23769;52.478;13.448;2022-12-08T01:28:27;11.25;;;5.88;;
37945;SDS011;23769;52.478;13.448;2022-12-08T01:30:54;12.27;;;6.13;;
37945;SDS011;23769;52.478;13.448;2022-12-08T01:33:22;12.52;;;6.53;;
37945;SDS011;23769;52.478;13.448;2022-12-08T01:35:50;14.88;;;7.30;;
37945;SDS011;23769;52.478;13.448;2022-12-08T01:38:19;13.27;;;6.90;;
37945;SDS011;23769;52.478;13.448;2022-12-08T01:40:47;12.07;;;7.18;;
37945;SDS011;23769;52.478;13.448;2022-12-08T01:43:14;13.45;;;6.70;;
37945;SDS011;23769;52.478;13.448;2022-12-08T01:45:42;10.95;;;6.20;;
37945;SDS011;23769;52.478;13.448;2022-12-08T01:48:09;10.80;;;6.35;;
37945;SDS011;23769;52.478;13.448;2022-12-08T01:50:38;10.57;;;5.88;;
37945;SDS011;23769;52.478;13.448;2022-12-08T01:53:08;13.50;;;6.40;;
37945;SDS011;23769;52.478;13.448;2022-12-08T01:55:38;12.90;;;6.13;;
37945;SDS011;23769;52.478;13.448;2022-12-08T01:58:10;11.70;;;6.03;;
37945;SDS011;23769;52.478;13.448;2022-12-08T02:00:38;11.65;;;6.03;;
37945;SDS011;23769;52.478;13.448;2022-12-08T02:03:06;15.07;;;6.47;;
37945;SDS011;23769;52.478;13.448;2022-12-08T02:05:35;14.30;;;6.22;;
37945;SDS011;23769;52.478;13.448;2022-12-08T02:08:04;11.07;;;5.30;;
37945;SDS011;23769;52.478;13.448;2022-12-08T02:10:34;12.82;;;5.65;;
37945;SDS011;23769;52.478;13.448;2022-12-08T02:13:02;11.32;;;6.95;;
37945;SDS011;23769;52.478;13.448;2022-12-08T02:15:31;9.25;;;5.97;;
37945;SDS011;23769;52.478;13.448;2022-12-08T02:18:06;10.15;;;5.70;;
37945;SDS011;23769;52.478;13.448;2022-12-08T02:20:40;12.35;;;5.85;;
37945;SDS011;23769;52.478;13.448;2022-12-08T02:23:14;10.50;;;5.90;;
37945;SDS011;23769;52.478;13.448;2022-12-08T02:25:50;10.75;;;5.55;;
37945;SDS011;23769;52.478;13.448;2022-12-08T02:28:37;10.70;;;5.80;;
37945;SDS011;23769;52.478;13.448;2022-12-08T02:31:10;13.35;;;6.50;;
37945;SDS011;23769;52.478;13.448;2022-12-08T02:34:03;10.27;;;6.07;;
37945;SDS011;23769;52.478;13.448;2022-12-08T02:36:34;9.63;;;5.43;;
37945;SDS011;23769;52.478;13.448;2022-12-08T02:39:07;12.52;;;5.68;;
37945;SDS011;23769;52.478;13.448;2022-12-08T02:41:38;10.40;;;5.78;;
37945;SDS011;23769;52.478;13.448;2022-12-08T02:44:09;10.30;;;5.75;;
37945;SDS011;23769;52.478;13.448;2022-12-08T02:46:39;10.48;;;5.50;;
37945;SDS011;23769;52.478;13.448;2022-12-08T02:49:09;16.38;;;8.95;;
37945;SDS011;23769;52.478;13.448;2022-12-08T02:51:39;9.95;;;6.20;;
37945;SDS011;23769;52.478;13.448;2022-12-08T02:54:06;10.13;;;5.65;;
37945;SDS011;23769;52.478;13.448;2022-12-08T02:56:41;19.55;;;9.82;;
37945;SDS011;23769;52.478;13.448;2022-12-08T02:59:19;12.18;;;6.22;;
37945;SDS011;23769;52.478;13.448;2022-12-08T03:01:56;10.73;;;6.07;;
37945;SDS011;23769;52.478;13.448;2022-12-08T03:04:29;12.02;;;7.28;;
37945;SDS011;23769;52.478;13.448;2022-12-08T03:06:58;10.60;;;6.00;;
37945;SDS011;23769;52.478;13.448;2022-12-08T03:09:33;8.88;;;5.45;;
37945;SDS011;23769;52.478;13.448;2022-12-08T03:12:02;11.13;;;5.20;;
37945;SDS011;23769;52.478;13.448;2022-12-08T03:14:32;9.25;;;5.35;;
37945;SDS011;23769;52.478;13.448;2022-12-08T03:17:00;9.02;;;5.20;;
37945;SDS011;23769;52.478;13.448;2022-12-08T03:19:29;8.68;;;5.38;;
37945;SDS011;23769;52.478;13.448;2022-12-08T03:21:58;35.70;;;18.45;;
37945;SDS011;23769;52.478;13.448;2022-12-08T03:24:28;37.88;;;18.48;;
37945;SDS011;23769;52.478;13.448;2022-12-08T03:26:57;9.50;;;5.35;;
37945;SDS011;23769;52.478;13.448;2022-12-08T03:29:25;17.23;;;10.07;;
37945;SDS011;23769;52.478;13.448;2022-12-08T03:31:53;9.30;;;5.20;;
37945;SDS011;23769;52.478;13.448;2022-12-08T03:34:22;6.93;;;4.68;;
37945;SDS011;23769;52.478;13.448;2022-12-08T03:36:51;11.23;;;5.05;;
37945;SDS011;23769;52.478;13.448;2022-12-08T03:39:18;7.70;;;5.35;;
37945;SDS011;23769;52.478;13.448;2022-12-08T03:41:45;9.02;;;5.57;;
37945;SDS011;23769;52.478;13.448;2022-12-08T03:44:12;9.65;;;5.25;;
37945;SDS011;23769;52.478;13.448;2022-12-08T03:46:40;8.85;;;4.95;;
37945;SDS011;23769;52.478;13.448;2022-12-08T03:49:07;10.77;;;5.38;;
37945;SDS011;23769;52.478;13.448;2022-12-08T03:51:34;9.32;;;5.75;;
37945;SDS011;23769;52.478;13.448;2022-12-08T03:54:03;8.95;;;5.65;;
37945;SDS011;23769;52.478;13.448;2022-12-08T03:56:31;8.93;;;5.85;;
37945;SDS011;23769;52.478;13.448;2022-12-08T03:58:58;11.27;;;6.75;;
37945;SDS011;23769;52.478;13.448;2022-12-08T04:01:26;12.68;;;7.40;;
37945;SDS011;23769;52.478;13.448;2022-12-08T04:03:53;11.98;;;7.50;;
37945;SDS011;23769;52.478;13.448;2022-12-08T04:06:21;12.05;;;7.53;;
37945;SDS011;23769;52.478;13.448;2022-12-08T04:08:48;10.98;;;7.53;;
37945;SDS011;23769;52.478;13.448;2022-12-08T04:11:17;12.20;;;7.55;;
37945;SDS011;23769;52.478;13.448;2022-12-08T04:13:45;15.68;;;8.40;;
37945;SDS011;23769;52.478;13.448;2022-12-08T04:16:13;14.32;;;8.30;;
37945;SDS011;23769;52.478;13.448;2022-12-08T04:18:41;14.40;;;8.70;;
37945;SDS011;23769;52.478;13.448;2022-12-08T04:21:08;13.88;;;8.70;;
37945;SDS011;23769;52.478;13.448;2022-12-08T04:23:35;14.68;;;8.82;;
37945;SDS011;23769;52.478;13.448;2022-12-08T04:26:02;16.58;;;9.43;;
37945;SDS011;23769;52.478;13.448;2022-12-08T04:28:31;15.52;;;8.77;;
37945;SDS011;23769;52.478;13.448;2022-12-08T04:30:58;17.50;;;10.52;;
37945;SDS011;23769;52.478;13.448;2022-12-08T04:33:25;15.10;;;9.93;;
37945;SDS011;23769;52.478;13.448;2022-12-08T04:35:53;18.77;;;11.40;;
37945;SDS011;23769;52.478;13.448;2022-12-08T04:38:20;33.17;;;19.05;;
37945;SDS011;23769;52.478;13.448;2022-12-08T04:40:47;60.55;;;32.67;;
37945;SDS011;23769;52.478;13.448;2022-12-08T04:43:14;42.08;;;23.13;;
37945;SDS011;23769;52.478;13.448;2022-12-08T04:45:43;24.67;;;14.23;;
37945;SDS011;23769;52.478;13.448;2022-12-08T04:48:10;19.98;;;11.65;;
37945;SDS011;23769;52.478;13.448;2022-12-08T04:50:38;19.65;;;12.45;;
37945;SDS011;23769;52.478;13.448;2022-12-08T04:53:06;20.70;;;12.05;;
37945;SDS011;23769;52.478;13.448;2022-12-08T04:55:33;18.45;;;11.90;;
37945;SDS011;23769;52.478;13.448;2022-12-08T04:58:00;19.88;;;12.52;;
37945;SDS011;23769;52.478;13.448;2022-12-08T05:00:27;21.90;;;13.45;;
37945;SDS011;23769;52.478;13.448;2022-12-08T05:02:56;18.63;;;12.40;;
37945;SDS011;23769;52.478;13.448;2022-12-08T05:05:23;25.38;;;14.35;;
37945;SDS011;23769;52.478;13.448;2022-12-08T05:07:50;24.42;;;15.15;;
37945;SDS011;23769;52.478;13.448;2022-12-08T05:10:18;23.13;;;12.35;;
37945;SDS011;23769;52.478;13.448;2022-12-08T05:12:45;19.63;;;12.15;;
37945;SDS011;23769;52.478;13.448;2022-12-08T05:15:12;22.55;;;11.75;;
37945;SDS011;23769;52.478;13.448;2022-12-08T05:17:39;22.02;;;12.93;;
37945;SDS011;23769;52.478;13.448;2022-12-08T05:20:08;18.75;;;12.23;;
37945;SDS011;23769;52.478;13.448;2022-12-08T05:22:36;22.27;;;12.02;;
37945;SDS011;23769;52.478;13.448;2022-12-08T05:25:03;23.65;;;13.10;;
37945;SDS011;23769;52.478;13.448;2022-12-08T05:27:30;24.98;;;12.70;;
37945;SDS011;23769;52.478;13.448;2022-12-08T05:29:57;23.65;;;11.35;;
37945;SDS011;23769;52.478;13.448;2022-12-08T05:32:25;21.50;;;12.65;;
37945;SDS011;23769;52.478;13.448;2022-12-08T05:34:52;22.15;;;12.10;;
37945;SDS011;23769;52.478;13.448;2022-12-08T05:37:20;22.15;;;12.70;;
37945;SDS011;23769;52.478;13.448;2022-12-08T05:39:47;19.85;;;12.13;;
37945;SDS011;23769;52.478;13.448;2022-12-08T05:44:44;20.42;;;12.65;;
37945;SDS011;23769;52.478;13.448;2022-12-08T05:47:12;19.60;;;12.18;;
37945;SDS011;23769;52.478;13.448;2022-12-08T05:49:39;21.20;;;12.73;;
37945;SDS011;23769;52.478;13.448;2022-12-08T05:52:06;20.17;;;12.02;;
37945;SDS011;23769;52.478;13.448;2022-12-08T05:54:35;29.00;;;15.63;;
37945;SDS011;23769;52.478;13.448;2022-12-08T05:57:02;30.80;;;16.23;;
37945;SDS011;23769;52.478;13.448;2022-12-08T05:59:29;27.25;;;14.00;;
37945;SDS011;23769;52.478;13.448;2022-12-08T06:01:57;23.20;;;14.13;;
37945;SDS011;23769;52.478;13.448;2022-12-08T06:04:24;23.85;;;14.15;;
37945;SDS011;23769;52.478;13.448;2022-12-08T06:06:51;42.80;;;23.65;;
37945;SDS011;23769;52.478;13.448;2022-12-08T06:09:18;30.75;;;17.27;;
37945;SDS011;23769;52.478;13.448;2022-12-08T06:11:47;33.38;;;20.42;;
37945;SDS011;23769;52.478;13.448;2022-12-08T06:14:14;28.10;;;13.90;;
37945;SDS011;23769;52.478;13.448;2022-12-08T06:16:41;24.67;;;13.52;;
37945;SDS011;23769;52.478;13.448;2022-12-08T06:19:08;25.70;;;13.32;;
37945;SDS011;23769;52.478;13.448;2022-12-08T06:21:36;23.17;;;13.25;;
37945;SDS011;23769;52.478;13.448;2022-12-08T06:24:03;22.30;;;13.40;;
37945;SDS011;23769;52.478;13.448;2022-12-08T06:26:30;25.90;;;14.93;;
37945;SDS011;23769;52.478;13.448;2022-12-08T06:29:01;30.80;;;16.95;;
37945;SDS011;23769;52.478;13.448;2022-12-08T06:31:29;30.10;;;15.95;;
37945;SDS011;23769;52.478;13.448;2022-12-08T06:33:56;23.75;;;13.20;;
37945;SDS011;23769;52.478;13.448;2022-12-08T06:36:24;24.65;;;13.50;;
37945;SDS011;23769;52.478;13.448;2022-12-08T06:38:52;21.52;;;13.35;;
37945;SDS011;23769;52.478;13.448;2022-12-08T06:41:19;27.17;;;13.73;;
37945;SDS011;23769;52.478;13.448;2022-12-08T06:43:46;26.65;;;14.43;;
37945;SDS011;23769;52.478;13.448;2022-12-08T06:46:16;24.65;;;13.45;;
37945;SDS011;23769;52.478;13.448;2022-12-08T06:48:44;25.63;;;14.35;;
37945;SDS011;23769;52.478;13.448;2022-12-08T06:51:12;23.33;;;12.63;;
37945;SDS011;23769;52.478;13.448;2022-12-08T06:53:40;25.65;;;14.23;;
37945;SDS011;23769;52.478;13.448;2022-12-08T06:56:07;22.88;;;12.65;;
37945;SDS011;23769;52.478;13.448;2022-12-08T06:58:34;21.83;;;12.57;;
37945;SDS011;23769;52.478;13.448;2022-12-08T07:01:05;21.90;;;12.70;;
37945;SDS011;23769;52.478;13.448;2022-12-08T07:03:33;22.52;;;12.65;;
37945;SDS011;23769;52.478;13.448;2022-12-08T07:06:01;23.48;;;13.27;;
37945;SDS011;23769;52.478;13.448;2022-12-08T07:08:28;27.90;;;14.32;;
37945;SDS011;23769;52.478;13.448;2022-12-08T07:10:57;26.15;;;14.15;;
37945;SDS011;23769;52.478;13.448;2022-12-08T07:13:30;26.65;;;14.35;;
37945;SDS011;23769;52.478;13.448;2022-12-08T07:15:57;25.85;;;13.98;;
37945;SDS011;23769;52.478;13.448;2022-12-08T07:18:24;28.88;;;15.73;;
37945;SDS011;23769;52.478;13.448;2022-12-08T07:20:52;25.58;;;14.20;;
37945;SDS011;23769;52.478;13.448;2022-12-08T07:23:20;26.75;;;14.38;;
37945;SDS011;23769;52.478;13.448;2022-12-08T07:25:47;23.45;;;14.45;;
37945;SDS011;23769;52.478;13.448;2022-12-08T07:28:14;30.45;;;14.48;;
37945;SDS011;23769;52.478;13.448;2022-12-08T07:30:41;23.02;;;12.48;;
37945;SDS011;23769;52.478;13.448;2022-12-08T07:33:08;22.48;;;12.82;;
37945;SDS011;23769;52.478;13.448;2022-12-08T07:35:35;21.30;;;13.70;;
37945;SDS011;23769;52.478;13.448;2022-12-08T07:38:04;26.20;;;14.82;;
37945;SDS011;23769;52.478;13.448;2022-12-08T07:40:37;26.95;;;13.93;;
37945;SDS011;23769;52.478;13.448;2022-12-08T07:43:04;21.92;;;13.20;;
37945;SDS011;23769;52.478;13.448;2022-12-08T07:45:31;23.85;;;13.35;;
37945;SDS011;23769;52.478;13.448;2022-12-08T07:47:58;22.40;;;11.98;;
37945;SDS011;23769;52.478;13.448;2022-12-08T07:50:26;20.85;;;11.07;;
37945;SDS011;23769;52.478;13.448;2022-12-08T07:52:53;20.65;;;11.40;;
37945;SDS011;23769;52.478;13.448;2022-12-08T07:55:21;29.60;;;12.18;;
37945;SDS011;23769;52.478;13.448;2022-12-08T07:57:49;19.42;;;10.98;;
37945;SDS011;23769;52.478;13.448;2022-12-08T08:00:16;22.33;;;11.40;;
37945;SDS011;23769;52.478;13.448;2022-12-08T08:02:44;23.60;;;11.50;;
37945;SDS011;23769;52.478;13.448;2022-12-08T08:05:11;20.17;;;9.85;;
37945;SDS011;23769;52.478;13.448;2022-12-08T08:07:38;21.02;;;11.02;;
37945;SDS011;23769;52.478;13.448;2022-12-08T08:10:08;20.42;;;11.32;;
37945;SDS011;23769;52.478;13.448;2022-12-08T08:12:37;21.08;;;10.82;;
37945;SDS011;23769;52.478;13.448;2022-12-08T08:15:06;22.85;;;11.75;;
37945;SDS011;23769;52.478;13.448;2022-12-08T08:17:35;26.33;;;12.85;;
37945;SDS011;23769;52.478;13.448;2022-12-08T08:20:06;26.98;;;12.25;;
37945;SDS011;23769;52.478;13.448;2022-12-08T08:22:33;21.25;;;12.02;;
37945;SDS011;23769;52.478;13.448;2022-12-08T08:25:00;26.88;;;12.65;;
37945;SDS011;23769;52.478;13.448;2022-12-08T08:27:28;22.92;;;12.32;;
37945;SDS011;23769;52.478;13.448;2022-12-08T08:29:56;23.25;;;12.30;;
37945;SDS011;23769;52.478;13.448;2022-12-08T08:32:23;20.85;;;11.80;;
37945;SDS011;23769;52.478;13.448;2022-12-08T08:34:51;21.13;;;11.88;;
37945;SDS011;23769;52.478;13.448;2022-12-08T08:37:18;20.33;;;11.48;;
37945;SDS011;23769;52.478;13.448;2022-12-08T08:39:45;21.95;;;11.93;;
37945;SDS011;23769;52.478;13.448;2022-12-08T08:42:13;24.55;;;13.30;;
37945;SDS011;23769;52.478;13.448;2022-12-08T08:44:40;21.85;;;10.57;;
37945;SDS011;23769;52.478;13.448;2022-12-08T08:47:08;31.30;;;17.33;;
37945;SDS011;23769;52.478;13.448;2022-12-08T08:49:36;22.10;;;12.77;;
37945;SDS011;23769;52.478;13.448;2022-12-08T08:52:03;22.90;;;11.57;;
37945;SDS011;23769;52.478;13.448;2022-12-08T08:54:31;20.10;;;12.27;;
37945;SDS011;23769;52.478;13.448;2022-12-08T08:56:59;22.45;;;13.05;;
37945;SDS011;23769;52.478;13.448;2022-12-08T08:59:27;24.88;;;13.73;;
37945;SDS011;23769;52.478;13.448;2022-12-08T09:01:54;23.33;;;14.63;;
37945;SDS011;23769;52.478;13.448;2022-12-08T09:04:23;24.20;;;14.23;;
37945;SDS011;23769;52.478;13.448;2022-12-08T09:06:50;24.98;;;13.68;;
37945;SDS011;23769;52.478;13.448;2022-12-08T09:09:18;23.73;;;13.32;;
37945;SDS011;23769;52.478;13.448;2022-12-08T09:11:45;23.27;;;12.55;;
37945;SDS011;23769;52.478;13.448;2022-12-08T09:14:12;26.48;;;13.02;;
37945;SDS011;23769;52.478;13.448;2022-12-08T09:16:41;23.42;;;12.23;;
37945;SDS011;23769;52.478;13.448;2022-12-08T09:19:09;20.08;;;11.60;;
37945;SDS011;23769;52.478;13.448;2022-12-08T09:21:38;23.92;;;12.27;;
37945;SDS011;23769;52.478;13.448;2022-12-08T09:24:05;24.60;;;11.60;;
37945;SDS011;23769;52.478;13.448;2022-12-08T09:26:34;21.45;;;12.13;;
37945;SDS011;23769;52.478;13.448;2022-12-08T09:29:01;19.17;;;11.40;;
37945;SDS011;23769;52.478;13.448;2022-12-08T09:31:28;22.42;;;12.32;;
37945;SDS011;23769;52.478;13.448;2022-12-08T09:33:56;23.90;;;12.82;;
37945;SDS011;23769;52.478;13.448;2022-12-08T09:36:25;20.88;;;12.90;;
37945;SDS011;23769;52.478;13.448;2022-12-08T09:38:54;23.08;;;13.52;;
37945;SDS011;23769;52.478;13.448;2022-12-08T09:41:22;19.92;;;11.38;;
37945;SDS011;23769;52.478;13.448;2022-12-08T09:43:57;20.50;;;11.32;;
37945;SDS011;23769;52.478;13.448;2022-12-08T09:46:27;18.60;;;12.02;;
37945;SDS011;23769;52.478;13.448;2022-12-08T09:48:56;21.50;;;12.15;;
37945;SDS011;23769;52.478;13.448;2022-12-08T09:51:24;24.20;;;13.07;;
37945;SDS011;23769;52.478;13.448;2022-12-08T09:53:53;21.40;;;13.05;;
37945;SDS011;23769;52.478;13.448;2022-12-08T09:56:22;22.33;;;12.43;;
37945;SDS011;23769;52.478;13.448;2022-12-08T09:58:51;20.50;;;11.75;;
37945;SDS011;23769;52.478;13.448;2022-12-08T10:01:19;24.20;;;12.57;;
37945;SDS011;23769;52.478;13.448;2022-12-08T10:03:47;21.35;;;12.63;;
37945;SDS011;23769;52.478;13.448;2022-12-08T10:06:17;20.83;;;12.75;;
37945;SDS011;23769;52.478;13.448;2022-12-08T10:08:47;22.98;;;11.93;;
37945;SDS011;23769;52.478;13.448;2022-12-08T10:11:18;21.92;;;11.73;;
37945;SDS011;23769;52.478;13.448;2022-12-08T10:13:51;21.05;;;12.43;;
37945;SDS011;23769;52.478;13.448;2022-12-08T10:16:22;19.70;;;11.52;;
37945;SDS011;23769;52.478;13.448;2022-12-08T10:18:51;18.20;;;11.18;;
37945;SDS011;23769;52.478;13.448;2022-12-08T10:21:22;19.10;;;10.88;;
37945;SDS011;23769;52.478;13.448;2022-12-08T10:23:51;18.20;;;11.32;;
37945;SDS011;23769;52.478;13.448;2022-12-08T10:26:20;19.45;;;11.50;;
37945;SDS011;23769;52.478;13.448;2022-12-08T10:28:47;19.83;;;11.63;;
37945;SDS011;23769;52.478;13.448;2022-12-08T10:31:17;20.10;;;12.38;;
37945;SDS011;23769;52.478;13.448;2022-12-08T10:33:44;20.83;;;11.98;;
37945;SDS011;23769;52.478;13.448;2022-12-08T10:36:12;18.83;;;11.60;;
37945;SDS011;23769;52.478;13.448;2022-12-08T10:38:39;19.30;;;11.77;;
37945;SDS011;23769;52.478;13.448;2022-12-08T10:41:10;20.38;;;12.10;;
37945;SDS011;23769;52.478;13.448;2022-12-08T10:43:41;18.20;;;11.07;;
37945;SDS011;23769;52.478;13.448;2022-12-08T10:46:09;19.13;;;12.32;;
37945;SDS011;23769;52.478;13.448;2022-12-08T10:48:45;17.83;;;11.65;;
37945;SDS011;23769;52.478;13.448;2022-12-08T10:51:20;22.70;;;13.75;;
37945;SDS011;23769;52.478;13.448;2022-12-08T10:53:48;21.30;;;11.95;;
37945;SDS011;23769;52.478;13.448;2022-12-08T10:56:15;14.95;;;10.80;;
37945;SDS011;23769;52.478;13.448;2022-12-08T10:58:43;19.70;;;10.48;;
37945;SDS011;23769;52.478;13.448;2022-12-08T11:01:11;16.60;;;10.68;;
37945;SDS011;23769;52.478;13.448;2022-12-08T11:03:42;16.23;;;10.65;;
37945;SDS011;23769;52.478;13.448;2022-12-08T11:06:11;16.80;;;10.35;;
37945;SDS011;23769;52.478;13.448;2022-12-08T11:08:47;18.90;;;10.35;;
37945;SDS011;23769;52.478;13.448;2022-12-08T11:11:15;18.17;;;9.88;;
37945;SDS011;23769;52.478;13.448;2022-12-08T11:13:43;19.02;;;9.60;;
37945;SDS011;23769;52.478;13.448;2022-12-08T11:16:10;17.83;;;10.10;;
37945;SDS011;23769;52.478;13.448;2022-12-08T11:18:39;18.83;;;11.43;;
37945;SDS011;23769;52.478;13.448;2022-12-08T11:21:10;17.23;;;10.23;;
37945;SDS011;23769;52.478;13.448;2022-12-08T11:23:39;17.63;;;10.90;;
37945;SDS011;23769;52.478;13.448;2022-12-08T11:26:09;15.23;;;8.90;;
37945;SDS011;23769;52.478;13.448;2022-12-08T11:28:37;14.77;;;9.18;;
37945;SDS011;23769;52.478;13.448;2022-12-08T11:31:06;19.02;;;10.10;;
37945;SDS011;23769;52.478;13.448;2022-12-08T11:33:38;17.42;;;10.60;;
37945;SDS011;23769;52.478;13.448;2022-12-08T11:36:08;19.92;;;10.32;;
37945;SDS011;23769;52.478;13.448;2022-12-08T11:38:38;16.63;;;9.57;;
37945;SDS011;23769;52.478;13.448;2022-12-08T11:41:08;20.50;;;10.70;;
37945;SDS011;23769;52.478;13.448;2022-12-08T11:43:38;17.15;;;10.15;;
37945;SDS011;23769;52.478;13.448;2022-12-08T11:46:10;17.30;;;10.07;;
37945;SDS011;23769;52.478;13.448;2022-12-08T11:48:39;16.38;;;9.57;;
37945;SDS011;23769;52.478;13.448;2022-12-08T11:51:10;24.77;;;11.32;;
37945;SDS011;23769;52.478;13.448;2022-12-08T11:53:41;23.85;;;12.60;;
37945;SDS011;23769;52.478;13.448;2022-12-08T11:56:15;18.63;;;11.05;;
37945;SDS011;23769;52.478;13.448;2022-12-08T11:58:46;17.92;;;9.48;;
37945;SDS011;23769;52.478;13.448;2022-12-08T12:01:16;18.55;;;10.10;;
37945;SDS011;23769;52.478;13.448;2022-12-08T12:03:45;13.93;;;9.15;;
37945;SDS011;23769;52.478;13.448;2022-12-08T12:06:19;19.27;;;10.30;;
37945;SDS011;23769;52.478;13.448;2022-12-08T12:08:51;14.48;;;9.07;;
37945;SDS011;23769;52.478;13.448;2022-12-08T12:11:22;16.13;;;8.88;;
37945;SDS011;23769;52.478;13.448;2022-12-08T12:14:12;18.42;;;9.90;;
37945;SDS011;23769;52.478;13.448;2022-12-08T12:16:53;14.25;;;8.50;;
37945;SDS011;23769;52.478;13.448;2022-12-08T12:19:23;16.55;;;8.98;;
37945;SDS011;23769;52.478;13.448;2022-12-08T12:21:51;15.02;;;9.05;;
37945;SDS011;23769;52.478;13.448;2022-12-08T12:24:21;18.67;;;9.80;;
37945;SDS011;23769;52.478;13.448;2022-12-08T12:26:53;16.98;;;9.65;;
37945;SDS011;23769;52.478;13.448;2022-12-08T12:29:21;16.73;;;8.00;;
37945;SDS011;23769;52.478;13.448;2022-12-08T12:31:50;13.85;;;8.68;;
37945;SDS011;23769;52.478;13.448;2022-12-08T12:34:19;11.85;;;7.60;;
37945;SDS011;23769;52.478;13.448;2022-12-08T12:36:47;15.52;;;8.80;;
37945;SDS011;23769;52.478;13.448;2022-12-08T12:39:16;14.88;;;7.90;;
37945;SDS011;23769;52.478;13.448;2022-12-08T12:41:46;17.27;;;8.73;;
37945;SDS011;23769;52.478;13.448;2022-12-08T12:44:21;19.90;;;11.73;;
37945;SDS011;23769;52.478;13.448;2022-12-08T12:46:53;15.35;;;8.60;;
37945;SDS011;23769;52.478;13.448;2022-12-08T12:55:18;16.85;;;9.73;;
37945;SDS011;23769;52.478;13.448;2022-12-08T12:57:51;17.30;;;8.98;;
37945;SDS011;23769;52.478;13.448;2022-12-08T13:00:18;15.20;;;8.80;;
37945;SDS011;23769;52.478;13.448;2022-12-08T13:02:46;13.50;;;8.68;;
37945;SDS011;23769;52.478;13.448;2022-12-08T13:05:15;14.02;;;8.82;;
37945;SDS011;23769;52.478;13.448;2022-12-08T13:07:44;18.25;;;9.20;;
37945;SDS011;23769;52.478;13.448;2022-12-08T13:10:15;15.60;;;9.43;;
37945;SDS011;23769;52.478;13.448;2022-12-08T13:12:43;14.13;;;8.77;;
37945;SDS011;23769;52.478;13.448;2022-12-08T13:15:16;14.02;;;8.75;;
37945;SDS011;23769;52.478;13.448;2022-12-08T13:17:44;13.80;;;9.30;;
37945;SDS011;23769;52.478;13.448;2022-12-08T13:20:17;15.88;;;9.43;;
37945;SDS011;23769;52.478;13.448;2022-12-08T13:22:49;16.13;;;9.50;;
37945;SDS011;23769;52.478;13.448;2022-12-08T13:25:46;16.48;;;9.77;;
37945;SDS011;23769;52.478;13.448;2022-12-08T13:28:18;16.52;;;10.52;;
37945;SDS011;23769;52.478;13.448;2022-12-08T13:30:47;14.85;;;8.98;;
37945;SDS011;23769;52.478;13.448;2022-12-08T13:33:17;15.57;;;9.27;;
37945;SDS011;23769;52.478;13.448;2022-12-08T13:36:03;17.15;;;10.70;;
37945;SDS011;23769;52.478;13.448;2022-12-08T13:38:33;18.80;;;10.60;;
37945;SDS011;23769;52.478;13.448;2022-12-08T13:41:02;22.25;;;12.93;;
37945;SDS011;23769;52.478;13.448;2022-12-08T13:43:34;24.08;;;13.77;;
37945;SDS011;23769;52.478;13.448;2022-12-08T13:46:04;24.15;;;13.82;;
37945;SDS011;23769;52.478;13.448;2022-12-08T13:48:35;21.00;;;13.27;;
37945;SDS011;23769;52.478;13.448;2022-12-08T13:51:07;15.98;;;10.25;;
37945;SDS011;23769;52.478;13.448;2022-12-08T13:53:37;20.80;;;11.13;;
37945;SDS011;23769;52.478;13.448;2022-12-08T13:56:05;19.17;;;11.15;;
37945;SDS011;23769;52.478;13.448;2022-12-08T13:58:33;18.20;;;11.02;;
37945;SDS011;23769;52.478;13.448;2022-12-08T14:01:02;19.35;;;11.38;;
37945;SDS011;23769;52.478;13.448;2022-12-08T14:03:33;22.95;;;11.73;;
37945;SDS011;23769;52.478;13.448;2022-12-08T14:06:02;20.15;;;11.35;;
37945;SDS011;23769;52.478;13.448;2022-12-08T14:08:32;19.42;;;11.43;;
37945;SDS011;23769;52.478;13.448;2022-12-08T14:11:00;18.98;;;11.25;;
37945;SDS011;23769;52.478;13.448;2022-12-08T14:13:28;21.25;;;13.20;;
37945;SDS011;23769;52.478;13.448;2022-12-08T14:15:56;18.02;;;11.13;;
37945;SDS011;23769;52.478;13.448;2022-12-08T14:18:24;22.38;;;11.55;;
37945;SDS011;23769;52.478;13.448;2022-12-08T14:20:59;19.20;;;11.43;;
37945;SDS011;23769;52.478;13.448;2022-12-08T14:23:27;16.58;;;11.43;;
37945;SDS011;23769;52.478;13.448;2022-12-08T14:25:54;23.92;;;12.02;;
37945;SDS011;23769;52.478;13.448;2022-12-08T14:28:21;20.83;;;12.00;;
37945;SDS011;23769;52.478;13.448;2022-12-08T14:30:49;22.95;;;13.57;;
37945;SDS011;23769;52.478;13.448;2022-12-08T14:33:16;21.40;;;12.93;;